Terminal Aerodrome Forecast
Issued by NWS

Home | Current Version | Previous Version | Text Only | Print | Product List | Glossary Off
Versions: 1 2 3 4 5 6 7 8 9 10 11 12 13 14 15 16 17 18

000
FTUS43 KABR 261700
TAFPIR
TAF
KPIR 261740Z 2618/2718 31010KT P6SM SCT250
     FM262300 VRB03KT P6SM SCT250
     FM270800 VRB03KT 3SM BR SCT005
     FM271600 15006KT P6SM FEW250=

USA.gov is the U.S. government's official web portal to all federal, state and local government web resources and services.